createdAt,value
2019-01-30T00:00:32.584Z,14.33
2019-01-30T00:03:02.320Z,14.17
2019-01-30T00:05:31.667Z,14.23
2019-01-30T00:08:00.391Z,14.30
2019-01-30T00:10:29.722Z,13.00
2019-01-30T00:12:58.393Z,12.10
2019-01-30T00:15:27.712Z,12.93
2019-01-30T00:17:57.040Z,13.07
2019-01-30T00:20:25.760Z,12.87
2019-01-30T00:22:54.435Z,13.23
2019-01-30T00:25:24.101Z,13.13
2019-01-30T00:27:53.415Z,12.60
2019-01-30T00:30:23.470Z,12.97
2019-01-30T00:32:52.761Z,13.87
2019-01-30T00:35:22.076Z,12.83
2019-01-30T00:37:51.359Z,13.10
2019-01-30T00:40:20.717Z,12.50
2019-01-30T00:42:50.004Z,13.20
2019-01-30T00:45:20.208Z,12.73
2019-01-30T00:47:48.920Z,11.43
2019-01-30T00:50:18.228Z,10.90
2019-01-30T00:52:47.549Z,11.97
2019-01-30T00:55:18.732Z,10.23
2019-01-30T00:57:48.132Z,10.70
2019-01-30T01:00:20.205Z,12.20
2019-01-30T01:02:49.487Z,11.83
2019-01-30T01:05:19.208Z,10.67
2019-01-30T01:07:48.536Z,10.83
2019-01-30T01:10:18.748Z,10.53
2019-01-30T01:12:48.082Z,10.97
2019-01-30T01:15:17.373Z,10.73
2019-01-30T01:17:47.608Z,10.53
2019-01-30T01:20:17.700Z,10.87
2019-01-30T01:22:47.090Z,9.33
2019-01-30T01:25:17.179Z,9.77
2019-01-30T01:27:46.460Z,9.47
2019-01-30T01:30:24.849Z,8.67
2019-01-30T01:32:49.933Z,9.37
2019-01-30T01:35:19.274Z,7.80
2019-01-30T01:37:48.577Z,7.73
2019-01-30T01:40:17.964Z,7.27
2019-01-30T01:42:47.296Z,7.83
2019-01-30T01:45:18.756Z,7.57
2019-01-30T01:47:47.431Z,7.07
2019-01-30T01:50:19.099Z,7.27
2019-01-30T01:52:48.411Z,7.13
2019-01-30T01:55:17.134Z,6.73
2019-01-30T01:57:46.404Z,6.57
2019-01-30T02:00:18.545Z,6.13
2019-01-30T02:02:47.872Z,6.77
2019-01-30T02:05:17.621Z,6.17
2019-01-30T02:07:46.325Z,5.40
2019-01-30T02:10:16.464Z,5.80
2019-01-30T02:12:46.200Z,5.87
2019-01-30T02:15:18.685Z,5.70
2019-01-30T02:17:48.164Z,6.10
2019-01-30T02:20:19.597Z,5.80
2019-01-30T02:22:49.304Z,5.50
2019-01-30T02:25:18.638Z,5.20
2019-01-30T02:27:47.960Z,5.33
2019-01-30T02:30:18.165Z,5.30
2019-01-30T02:32:47.905Z,5.80
2019-01-30T02:35:16.646Z,5.87
2019-01-30T02:37:45.361Z,5.63
2019-01-30T02:40:15.280Z,5.60
2019-01-30T02:42:44.007Z,4.57
2019-01-30T02:45:16.660Z,5.30
2019-01-30T02:47:45.496Z,5.10
2019-01-30T02:50:15.086Z,5.10
2019-01-30T02:52:43.753Z,5.23
2019-01-30T02:55:14.565Z,5.17
2019-01-30T02:57:43.840Z,5.40
2019-01-30T03:00:34.307Z,4.70
2019-01-30T03:03:02.983Z,4.93
2019-01-30T03:05:31.891Z,4.90
2019-01-30T03:08:01.663Z,4.87
2019-01-30T03:10:30.975Z,4.37
2019-01-30T03:13:00.248Z,4.63
2019-01-30T03:15:29.051Z,4.50
2019-01-30T03:17:58.342Z,5.23
2019-01-30T03:20:27.903Z,5.17
2019-01-30T03:22:57.177Z,4.43
2019-01-30T03:25:26.840Z,4.90
2019-01-30T03:27:56.171Z,5.37
2019-01-30T03:30:27.794Z,5.17
2019-01-30T03:32:58.218Z,5.40
2019-01-30T03:35:27.485Z,5.70
2019-01-30T03:37:57.203Z,5.60
2019-01-30T03:40:26.528Z,5.57
2019-01-30T03:42:55.814Z,5.17
2019-01-30T03:45:24.946Z,4.63
2019-01-30T03:47:54.220Z,5.10
2019-01-30T03:50:23.612Z,4.93
2019-01-30T03:52:52.932Z,5.07
2019-01-30T03:55:22.652Z,6.20
2019-01-30T03:57:51.923Z,5.13
2019-01-30T04:00:23.312Z,4.93
2019-01-30T04:02:53.156Z,5.90
2019-01-30T04:05:22.489Z,4.60
2019-01-30T04:07:52.182Z,4.83
2019-01-30T04:10:22.621Z,5.07
2019-01-30T04:12:51.315Z,4.63
2019-01-30T04:15:21.406Z,5.00
2019-01-30T04:17:50.138Z,4.93
2019-01-30T04:20:19.363Z,5.57
2019-01-30T04:22:49.159Z,4.87
2019-01-30T04:25:18.992Z,5.07
2019-01-30T04:27:48.341Z,4.83
2019-01-30T04:30:20.740Z,5.10
2019-01-30T04:32:50.016Z,4.47
2019-01-30T04:35:19.285Z,4.93
2019-01-30T04:37:48.596Z,6.20
2019-01-30T04:40:19.681Z,5.40
2019-01-30T04:42:49.866Z,5.03
2019-01-30T04:45:21.904Z,5.10
2019-01-30T04:47:51.180Z,5.67
2019-01-30T04:50:20.543Z,5.33
2019-01-30T04:52:49.858Z,5.83
2019-01-30T04:55:20.432Z,5.60
2019-01-30T04:57:49.786Z,5.60
2019-01-30T05:00:21.384Z,5.80
2019-01-30T05:02:51.233Z,5.63
2019-01-30T05:05:20.550Z,5.37
2019-01-30T05:07:49.862Z,5.30
2019-01-30T05:10:19.520Z,6.00
2019-01-30T05:12:48.847Z,5.43
2019-01-30T05:15:19.626Z,5.07
2019-01-30T05:17:48.281Z,4.83
2019-01-30T05:20:18.752Z,5.40
2019-01-30T05:22:48.085Z,5.60
2019-01-30T05:25:18.956Z,6.27
2019-01-30T05:27:48.286Z,5.83
2019-01-30T05:30:21.148Z,5.80
2019-01-30T05:32:50.502Z,5.43
2019-01-30T05:35:19.269Z,5.37
2019-01-30T05:37:51.199Z,5.23
2019-01-30T05:40:19.602Z,5.70
2019-01-30T05:42:48.884Z,5.53
2019-01-30T05:45:18.503Z,5.80
2019-01-30T05:47:47.844Z,5.60
2019-01-30T05:50:17.729Z,5.40
2019-01-30T05:52:46.411Z,5.73
2019-01-30T05:55:16.563Z,5.43
2019-01-30T05:57:45.268Z,5.50
2019-01-30T06:00:42.980Z,6.43
2019-01-30T06:03:12.345Z,6.70
2019-01-30T06:05:41.625Z,6.33
2019-01-30T06:08:10.944Z,6.03
2019-01-30T06:10:40.329Z,6.23
2019-01-30T06:13:09.638Z,6.03
2019-01-30T06:15:38.915Z,6.10
2019-01-30T06:18:08.249Z,6.40
2019-01-30T06:20:37.526Z,6.43
2019-01-30T06:23:06.835Z,6.30
2019-01-30T06:25:35.500Z,5.80
2019-01-30T06:28:06.357Z,6.17
2019-01-30T06:30:35.644Z,6.90
2019-01-30T06:33:05.079Z,6.67
2019-01-30T06:35:34.352Z,6.97
2019-01-30T06:38:04.056Z,6.60
2019-01-30T06:40:34.601Z,6.77
2019-01-30T06:43:04.430Z,7.10
2019-01-30T06:45:33.744Z,6.77
2019-01-30T06:48:03.018Z,6.87
2019-01-30T06:50:31.744Z,6.93
2019-01-30T06:53:01.017Z,7.63
2019-01-30T06:55:30.386Z,7.57
2019-01-30T06:57:59.721Z,7.00
2019-01-30T07:00:29.075Z,6.57
2019-01-30T07:02:59.331Z,7.23
2019-01-30T07:05:28.608Z,7.40
2019-01-30T07:07:57.933Z,7.30
2019-01-30T07:10:28.640Z,7.03
2019-01-30T07:12:57.961Z,7.20
2019-01-30T07:15:27.270Z,7.00
2019-01-30T07:17:56.577Z,7.43
2019-01-30T07:20:26.170Z,7.57
2019-01-30T07:22:55.490Z,7.90
2019-01-30T07:25:24.771Z,7.50
2019-01-30T07:27:54.076Z,7.67
2019-01-30T07:30:35.622Z,8.50
2019-01-30T07:33:06.264Z,8.60
2019-01-30T07:35:35.568Z,8.67
2019-01-30T07:38:05.725Z,7.87
2019-01-30T07:40:35.081Z,8.50
2019-01-30T07:43:04.408Z,8.73
2019-01-30T07:45:33.676Z,7.73
2019-01-30T07:48:04.636Z,7.97
2019-01-30T07:50:33.912Z,8.50
2019-01-30T07:53:03.241Z,8.27
2019-01-30T07:55:32.578Z,8.80
2019-01-30T07:58:01.898Z,8.93
2019-01-30T08:00:33.273Z,8.10
2019-01-30T08:03:02.758Z,9.17
2019-01-30T08:05:32.074Z,8.97
2019-01-30T08:08:01.402Z,9.60
2019-01-30T08:10:30.732Z,9.20
2019-01-30T08:13:00.020Z,9.90
2019-01-30T08:15:29.297Z,10.07
2019-01-30T08:17:58.841Z,8.90
2019-01-30T08:20:28.124Z,9.77
2019-01-30T08:22:57.623Z,10.70
2019-01-30T08:25:27.699Z,10.50
2019-01-30T08:27:58.079Z,10.23
2019-01-30T08:30:32.015Z,10.80
2019-01-30T08:33:05.402Z,10.67
2019-01-30T08:35:34.652Z,10.83
2019-01-30T08:38:05.768Z,10.90
2019-01-30T08:40:35.232Z,10.47
2019-01-30T08:43:05.089Z,9.73
2019-01-30T08:45:34.363Z,11.47
2019-01-30T08:48:03.680Z,10.17
2019-01-30T08:50:33.003Z,10.90
2019-01-30T08:53:02.379Z,11.13
2019-01-30T08:55:31.656Z,10.80
2019-01-30T08:58:00.976Z,10.83
2019-01-30T09:00:31.533Z,11.23
2019-01-30T09:03:00.880Z,11.07
2019-01-30T09:05:30.225Z,10.60
2019-01-30T09:07:59.540Z,11.33
2019-01-30T09:10:29.282Z,10.13
2019-01-30T09:12:59.102Z,10.90
2019-01-30T09:15:28.965Z,10.47
2019-01-30T09:17:58.448Z,10.67
2019-01-30T09:20:28.301Z,11.27
2019-01-30T09:22:57.589Z,11.00
2019-01-30T09:25:29.202Z,10.63
2019-01-30T09:27:59.367Z,11.33
2019-01-30T09:30:31.182Z,10.83
2019-01-30T09:33:01.049Z,11.57
2019-01-30T09:35:30.397Z,11.07
2019-01-30T09:37:59.707Z,11.03
2019-01-30T09:40:29.116Z,11.73
2019-01-30T09:42:58.972Z,11.23
2019-01-30T09:45:28.341Z,10.67
2019-01-30T09:47:57.790Z,11.57
2019-01-30T09:50:27.172Z,11.97
2019-01-30T09:52:56.583Z,11.37
2019-01-30T09:55:25.942Z,11.50
2019-01-30T09:57:55.305Z,10.73
2019-01-30T10:00:26.634Z,11.47
2019-01-30T10:02:56.728Z,11.30
2019-01-30T10:05:26.028Z,12.17
2019-01-30T10:07:55.531Z,11.23
2019-01-30T10:10:33.245Z,11.97
2019-01-30T10:13:03.964Z,11.23
2019-01-30T10:15:36.158Z,11.43
2019-01-30T10:18:06.576Z,11.20
2019-01-30T10:20:36.739Z,11.63
2019-01-30T10:23:06.440Z,10.73
2019-01-30T10:25:35.764Z,11.33
2019-01-30T10:28:15.871Z,11.37
2019-01-30T10:30:39.424Z,11.83
2019-01-30T10:33:08.757Z,10.83
2019-01-30T10:35:38.477Z,11.60
2019-01-30T10:38:07.756Z,11.77
2019-01-30T10:40:37.240Z,10.93
2019-01-30T10:43:07.329Z,10.70
2019-01-30T10:45:38.338Z,11.33
2019-01-30T10:48:07.714Z,10.93
2019-01-30T10:50:36.992Z,10.73
2019-01-30T10:53:06.325Z,10.47
2019-01-30T10:55:36.188Z,10.03
2019-01-30T10:58:08.917Z,9.77
2019-01-30T11:00:43.868Z,10.07
2019-01-30T11:03:13.213Z,8.70
2019-01-30T11:05:44.443Z,9.17
2019-01-30T11:08:14.000Z,9.90
2019-01-30T11:10:43.334Z,9.10
2019-01-30T11:13:13.538Z,9.43
2019-01-30T11:15:42.858Z,9.43
2019-01-30T11:18:15.020Z,8.43
2019-01-30T11:20:44.610Z,8.63
2019-01-30T11:23:13.929Z,10.17
2019-01-30T11:25:45.448Z,9.97
2019-01-30T11:28:15.931Z,11.20
2019-01-30T11:30:45.303Z,11.53
2019-01-30T11:33:14.592Z,11.03
2019-01-30T11:35:43.909Z,11.50
2019-01-30T11:38:13.316Z,11.37
2019-01-30T11:40:42.633Z,11.07
2019-01-30T11:43:11.952Z,9.97
2019-01-30T11:45:43.200Z,10.27
2019-01-30T11:48:12.523Z,10.13
2019-01-30T11:50:42.851Z,11.03
2019-01-30T11:53:13.153Z,11.13
2019-01-30T11:55:42.515Z,11.27
2019-01-30T11:58:11.790Z,11.27
2019-01-30T12:01:05.904Z,11.57
2019-01-30T12:03:35.259Z,10.93
2019-01-30T12:06:05.174Z,10.87
2019-01-30T12:08:34.419Z,11.87
2019-01-30T12:11:04.092Z,12.13
2019-01-30T12:13:33.408Z,12.60
2019-01-30T12:16:02.724Z,10.23
2019-01-30T12:18:32.432Z,13.17
2019-01-30T12:21:01.749Z,14.07
2019-01-30T12:23:31.034Z,15.28
2019-01-30T12:26:01.014Z,14.37
2019-01-30T12:28:30.314Z,13.17
2019-01-30T12:30:59.642Z,13.50
2019-01-30T12:33:28.956Z,13.60
2019-01-30T12:35:58.288Z,13.83
2019-01-30T12:38:27.573Z,14.63
2019-01-30T12:40:56.901Z,13.90
2019-01-30T12:43:26.224Z,13.87
2019-01-30T12:45:55.567Z,13.60
2019-01-30T12:48:43.969Z,13.37
2019-01-30T12:51:13.287Z,15.10
2019-01-30T12:53:42.609Z,13.73
2019-01-30T12:56:11.876Z,13.47
2019-01-30T12:58:41.311Z,13.63
2019-01-30T13:01:10.723Z,13.97
2019-01-30T13:03:40.130Z,13.60
2019-01-30T13:06:09.617Z,13.00
2019-01-30T13:08:39.065Z,13.63
2019-01-30T13:11:08.594Z,12.63
2019-01-30T13:13:38.163Z,13.63
2019-01-30T13:16:08.109Z,13.53
2019-01-30T13:18:37.613Z,14.17
2019-01-30T13:21:07.145Z,13.77
2019-01-30T13:23:36.607Z,14.37
2019-01-30T13:26:07.133Z,14.00
2019-01-30T13:28:36.580Z,13.20
2019-01-30T13:31:05.957Z,14.13
2019-01-30T13:33:35.302Z,13.90
2019-01-30T13:36:07.618Z,14.20
2019-01-30T13:38:49.085Z,13.37
2019-01-30T13:41:18.452Z,13.50
2019-01-30T13:43:47.792Z,13.63
2019-01-30T13:46:17.084Z,12.90
2019-01-30T13:48:46.367Z,13.07
2019-01-30T13:51:15.718Z,14.23
2019-01-30T13:53:45.946Z,12.93
2019-01-30T13:56:15.395Z,12.77
2019-01-30T13:58:44.725Z,13.10
2019-01-30T14:01:17.998Z,13.17
2019-01-30T14:03:47.386Z,12.43
2019-01-30T14:06:17.683Z,13.07
2019-01-30T14:08:47.044Z,14.03
2019-01-30T14:11:16.496Z,13.50
2019-01-30T14:13:46.480Z,13.70
2019-01-30T14:16:16.313Z,13.47
2019-01-30T14:18:45.692Z,12.70
2019-01-30T14:21:15.034Z,14.33
2019-01-30T14:23:44.441Z,13.37
2019-01-30T14:26:13.801Z,13.53
2019-01-30T14:28:43.186Z,13.53
2019-01-30T14:31:12.546Z,13.90
2019-01-30T14:33:41.959Z,13.23
2019-01-30T14:36:11.725Z,14.93
2019-01-30T14:38:41.056Z,15.33
2019-01-30T14:41:10.390Z,15.43
2019-01-30T14:43:39.720Z,14.83
2019-01-30T14:46:09.192Z,17.57
2019-01-30T14:48:39.144Z,15.83
2019-01-30T14:51:08.508Z,15.47
2019-01-30T14:53:37.832Z,16.67
2019-01-30T14:56:07.584Z,17.03
2019-01-30T14:58:37.017Z,17.43
2019-01-30T15:01:06.930Z,16.83
2019-01-30T15:03:36.422Z,17.70
2019-01-30T15:06:07.829Z,18.20
2019-01-30T15:08:37.111Z,17.40
2019-01-30T15:11:06.909Z,17.10
2019-01-30T15:13:36.784Z,19.17
2019-01-30T15:16:06.880Z,16.73
2019-01-30T15:18:36.324Z,18.43
2019-01-30T15:21:06.597Z,19.63
2019-01-30T15:23:35.978Z,18.40
2019-01-30T15:26:05.681Z,17.73
2019-01-30T15:28:34.998Z,18.40
2019-01-30T15:31:04.976Z,19.13
2019-01-30T15:33:34.295Z,18.17
2019-01-30T15:36:04.217Z,18.77
2019-01-30T15:38:33.503Z,20.00
2019-01-30T15:41:02.824Z,18.83
2019-01-30T15:43:32.160Z,20.47
2019-01-30T15:46:01.484Z,20.00
2019-01-30T15:48:30.753Z,18.30
2019-01-30T15:51:00.080Z,18.60
2019-01-30T15:53:29.684Z,18.27
2019-01-30T15:55:59.043Z,18.50
2019-01-30T15:58:28.388Z,19.47
2019-01-30T16:01:05.344Z,22.30
2019-01-30T16:03:34.802Z,18.70
2019-01-30T16:06:04.972Z,19.10
2019-01-30T16:08:34.295Z,17.77
2019-01-30T16:11:03.872Z,18.10
2019-01-30T16:13:33.223Z,17.50
2019-01-30T16:16:05.009Z,17.83
2019-01-30T16:18:34.356Z,17.73
2019-01-30T16:21:03.628Z,17.83
2019-01-30T16:23:32.948Z,17.27
2019-01-30T16:26:02.240Z,18.07
2019-01-30T16:28:31.634Z,18.37
2019-01-30T16:31:01.560Z,17.63
2019-01-30T16:33:30.857Z,17.83
2019-01-30T16:36:00.185Z,16.87
2019-01-30T16:38:29.490Z,19.10
2019-01-30T16:40:58.814Z,18.77
2019-01-30T16:43:29.125Z,17.33
2019-01-30T16:45:58.430Z,17.57
2019-01-30T16:48:27.716Z,17.50
2019-01-30T16:50:57.825Z,19.07
2019-01-30T16:53:27.252Z,17.87
2019-01-30T16:55:56.644Z,18.57
2019-01-30T16:58:25.934Z,19.27
2019-01-30T17:00:55.292Z,19.50
2019-01-30T17:03:24.636Z,19.63
2019-01-30T17:05:53.916Z,19.70
2019-01-30T17:08:26.280Z,19.53
2019-01-30T17:10:55.612Z,17.70
2019-01-30T17:13:24.941Z,19.13
2019-01-30T17:15:54.227Z,17.13
2019-01-30T17:18:24.350Z,18.80
2019-01-30T17:20:54.288Z,17.67
2019-01-30T17:23:23.572Z,17.43
2019-01-30T17:25:52.932Z,18.17
2019-01-30T17:28:22.212Z,17.87
2019-01-30T17:31:08.020Z,17.70
2019-01-30T17:33:37.306Z,18.20
2019-01-30T17:36:17.888Z,18.27
2019-01-30T17:38:37.677Z,17.93
2019-01-30T17:41:07.944Z,17.67
2019-01-30T17:43:37.300Z,18.23
2019-01-30T17:46:06.988Z,18.47
2019-01-30T17:48:36.428Z,18.87
2019-01-30T17:51:05.747Z,20.50
2019-01-30T17:53:35.108Z,19.97
2019-01-30T17:56:04.932Z,19.37
2019-01-30T17:58:34.464Z,19.47
2019-01-30T18:01:05.137Z,19.70
2019-01-30T18:03:34.440Z,21.27
2019-01-30T18:06:03.769Z,23.20
2019-01-30T18:08:33.360Z,22.50
2019-01-30T18:11:02.693Z,22.97
2019-01-30T18:13:32.140Z,25.20
2019-01-30T18:16:01.477Z,28.77
2019-01-30T18:18:30.766Z,30.43
2019-01-30T18:21:00.101Z,31.73
2019-01-30T18:23:29.419Z,39.47
2019-01-30T18:26:01.226Z,37.53
2019-01-30T18:28:29.759Z,36.97
2019-01-30T18:30:59.074Z,35.60
2019-01-30T18:33:28.416Z,33.90
2019-01-30T18:35:58.186Z,27.30
2019-01-30T18:38:27.524Z,26.20
2019-01-30T18:40:56.851Z,22.17
2019-01-30T18:43:26.189Z,19.43
2019-01-30T18:45:55.512Z,20.93
2019-01-30T18:48:24.797Z,21.60
2019-01-30T18:50:56.825Z,19.57
2019-01-30T18:53:25.207Z,20.33
2019-01-30T18:55:54.504Z,18.67
2019-01-30T18:58:23.846Z,16.37
2019-01-30T19:00:53.847Z,21.70
2019-01-30T19:03:23.160Z,18.33
2019-01-30T19:05:52.852Z,19.90
2019-01-30T19:08:22.176Z,19.67
2019-01-30T19:10:51.506Z,21.33
2019-01-30T19:13:20.834Z,19.07
2019-01-30T19:15:50.131Z,18.87
2019-01-30T19:18:19.505Z,18.80
2019-01-30T19:20:49.913Z,18.07
2019-01-30T19:23:19.199Z,19.40
2019-01-30T19:25:48.536Z,19.83
2019-01-30T19:28:17.830Z,21.03
2019-01-30T19:30:47.588Z,22.83
2019-01-30T19:33:16.909Z,24.00
2019-01-30T19:35:46.291Z,23.23
2019-01-30T19:38:16.685Z,23.63
2019-01-30T19:40:46.062Z,21.40
2019-01-30T19:43:15.388Z,21.83
2019-01-30T19:45:44.709Z,22.20
2019-01-30T19:48:14.346Z,20.37
2019-01-30T19:50:43.753Z,20.07
2019-01-30T19:53:13.043Z,21.10
2019-01-30T19:55:42.331Z,21.27
2019-01-30T19:58:12.329Z,21.27
2019-01-30T20:00:45.199Z,20.83
2019-01-30T20:03:17.384Z,20.97
2019-01-30T20:05:46.668Z,22.80
2019-01-30T20:08:17.797Z,22.00
2019-01-30T20:10:47.276Z,23.47
2019-01-30T20:13:16.865Z,24.47
2019-01-30T20:15:46.246Z,23.33
2019-01-30T20:18:15.859Z,25.97
2019-01-30T20:20:45.766Z,27.60
2019-01-30T20:23:16.788Z,25.57
2019-01-30T20:25:46.069Z,26.20
2019-01-30T20:28:15.353Z,24.00
2019-01-30T20:30:44.746Z,26.20
2019-01-30T20:33:14.032Z,27.67
2019-01-30T20:35:43.368Z,25.60
2019-01-30T20:38:12.658Z,26.77
2019-01-30T20:40:41.953Z,33.33
2019-01-30T20:43:11.280Z,30.27
2019-01-30T20:45:40.745Z,31.13
2019-01-30T20:48:10.493Z,32.03
2019-01-30T20:50:40.892Z,29.53
2019-01-30T20:53:10.293Z,26.17
2019-01-30T20:55:39.663Z,25.43
2019-01-30T20:58:08.959Z,27.00
2019-01-30T21:00:39.446Z,27.00
2019-01-30T21:03:09.372Z,25.67
2019-01-30T21:05:38.708Z,25.30
2019-01-30T21:08:08.795Z,23.03
2019-01-30T21:10:40.887Z,24.37
2019-01-30T21:13:10.919Z,25.03
2019-01-30T21:15:40.395Z,23.53
2019-01-30T21:18:09.683Z,23.10
2019-01-30T21:20:38.987Z,23.53
2019-01-30T21:23:08.808Z,22.57
2019-01-30T21:25:38.100Z,23.33
2019-01-30T21:28:07.841Z,22.10
2019-01-30T21:30:39.145Z,23.83
2019-01-30T21:33:08.990Z,27.33
2019-01-30T21:35:38.784Z,36.30
2019-01-30T21:38:08.810Z,48.90
2019-01-30T21:40:38.581Z,38.47
2019-01-30T21:43:08.329Z,37.30
2019-01-30T21:45:36.999Z,37.73
2019-01-30T21:48:06.128Z,34.67
2019-01-30T21:50:35.464Z,32.13
2019-01-30T21:53:04.760Z,31.60
2019-01-30T21:55:34.661Z,31.07
2019-01-30T21:58:04.004Z,30.60
2019-01-30T22:00:32.692Z,29.57
2019-01-30T22:03:02.000Z,30.27
2019-01-30T22:05:30.672Z,29.47
2019-01-30T22:08:01.347Z,29.17
2019-01-30T22:10:30.737Z,28.40
2019-01-30T22:13:00.132Z,28.07
2019-01-30T22:15:30.840Z,27.70
2019-01-30T22:18:00.159Z,27.83
2019-01-30T22:20:29.496Z,28.63
2019-01-30T22:22:59.860Z,31.37
2019-01-30T22:25:29.160Z,28.53
2019-01-30T22:27:58.493Z,30.50
2019-01-30T22:30:33.430Z,30.20
2019-01-30T22:33:03.171Z,29.23
2019-01-30T22:35:32.497Z,32.27
2019-01-30T22:38:12.336Z,30.27
2019-01-30T22:40:32.865Z,30.80
2019-01-30T22:43:02.173Z,29.40
2019-01-30T22:45:31.496Z,30.00
2019-01-30T22:48:00.804Z,28.70
2019-01-30T22:50:30.131Z,29.63
2019-01-30T22:52:59.430Z,28.80
2019-01-30T22:55:28.792Z,29.60
2019-01-30T22:57:57.504Z,31.27
2019-01-30T23:01:06.658Z,28.70
2019-01-30T23:04:13.012Z,28.30
2019-01-30T23:07:19.459Z,31.00
2019-01-30T23:10:34.928Z,27.80
2019-01-30T23:13:34.623Z,29.57
2019-01-30T23:16:49.805Z,29.13
2019-01-30T23:19:39.878Z,27.90
2019-01-30T23:22:38.057Z,31.47
2019-01-30T23:25:39.834Z,27.50
2019-01-30T23:28:26.492Z,27.93
2019-01-30T23:31:24.130Z,27.60
2019-01-30T23:34:34.362Z,27.67
2019-01-30T23:37:42.921Z,29.37
2019-01-30T23:40:53.516Z,27.47
2019-01-30T23:43:45.855Z,29.67
2019-01-30T23:46:54.896Z,29.67
2019-01-30T23:50:00.816Z,28.23
2019-01-30T23:53:14.003Z,28.90
2019-01-30T23:56:16.156Z,31.37
2019-01-30T23:59:29.811Z,30.80
